Hovedside
METAR-TAF:

METAR-TAF

Lufthavner :

Karlstad, Sverige

Karlstad lufthavn

breddegrad: 59-26-41N, lengdegrad: 013-20-15E, høyde over havet: 107 m

Gjeldene værobservasjon

Denne rapporten ble laget for 37 minutter siden, klokken 21:20 UTC
Vind 4 kt fra Øst-sørøst
Temperatur 16°C
Luftfuktighet 94%
Trykk 1007 hPa
Sikt 10 km eller mer

METAR: ESOK 182120Z AUTO 12004KT 9999 FEW023/// SCT058/// 16/15 Q1007

Tid: 23:57 (21:57 UTC)

Varsel

Denne rapporten ble laget for 4 timer og 27 minutter siden, klokken 17:30 UTC
Varsel gyldig fra 18. klokken 18 UTC til 18. klokken 21 UTC
Vind 8 kt fra Sør-sørøst
Sikt 10 km eller mer
Brutte skyer i en høyde av 3500 ft
Sannsynlighet 40%
fra 18. klokken 19 UTC til 18. klokken 21 UTC
Brutte skyer i en høyde av 3000 ft, Bygeskyer.
regnbyger

TAF: ESOK 181730Z 1818/1821 16008KT 9999 BKN035 PROB40 1819/1821 SHRA BKN030CB

Værobservasjoner og værvarsel for over 4000 flyplasser (METAR- og TAF-rapporter).

Tilgjengelige stasjoner er representert av de røde og gule prikkene på kartet.

Hold musepekeren over prikken for å se navnet på stasjonen.

Klikk så for å se værobservasjoner og -varsler.

For å forandre kartet kan du klikke på den grønne knappen med svart kryss for å zoome inn, på den grønne knappen med strek for å zoome ut, eller på de grønne pilene for å se tilstøtende kart.


METAR-TAF: